ADDS METAR Data INFO
IDs: Format: Raw Decoded Include TAF

Data at: 1812 UTC 18 Feb 2018

KSRR 181515Z AUTO 00000KT 10SM CLR 07/M01 A3005 RMK AO2
KSRR 181415Z AUTO 02005KT 10SM CLR 03/M03 A3004 RMK AO2 P0001
KSRR 181355Z AUTO 04004KT 10SM CLR 03/M03 A3004 RMK AO2
KSRR 181215Z AUTO 14005KT 10SM CLR 04/M03 A3007 RMK AO2
KSRR 181135Z AUTO 00000KT 10SM CLR 02/M04 A3007 RMK AO2
KSRR 181055Z AUTO 00000KT 10SM CLR 02/M04 A3008 RMK AO2
KSRR 180815Z AUTO 23004KT 10SM CLR 02/M05 A3015 RMK AO2
KSRR 180215Z AUTO 29004KT 10SM CLR 05/M05 A3023 RMK AO2
KSRR 172035Z AUTO 30008KT 260V320 10SM CLR 10/M08 A3023 RMK AO2
KSRR 171715Z AUTO 31016G20KT 10SM CLR 06/M05 A3022 RMK AO2
KSRR 171455Z AUTO 34009G14KT 10SM CLR 04/00 A3019 RMK AO2
KSRR 171315Z AUTO 36006KT 10SM CLR 04/02 A3014 RMK AO2
KSRR 171135Z AUTO 05006KT 10SM SCT015 03/03 A3013 RMK AO2
KSRR 171015Z AUTO 00000KT 10SM CLR 02/02 A3012 RMK AO2
KSRR 170835Z AUTO 03005KT M1/4SM FG OVC002 02/02 A3014 RMK AO2 P0001